Terminal Aerodrome Forecast
Issued by NWS Tuscon, AZ

Current Version | Previous Version | Text Only | Print | Product List | Glossary On
Versions: 1 2 3 4 5 6 7 8 9 10 11 12 13 14 15 16 17 18 19
000
FTUS45 KTWC 170500
TAFTUS
TAF
KTUS 170533Z 1706/1806 09010KT P6SM VCSH SCT070 OVC090
      TEMPO 1706/1710 -SHRA SCT050 OVC080
     FM171000 13012KT P6SM -SHRA SCT050 OVC070
     FM171400 13012KT P6SM SHRA BKN040 OVC060=

USA.gov is the U.S. government's official web portal to all federal, state and local government web resources and services.